Novo Milenio — CUOW5 — position and weather

sailwx.info

Track history (hours):
 
Tides and Currents Weather Stations Pressure Air Temp Water Temp Dewpoint Dewpoint Depression Visibility Wind Speed Wind Dir Waves Ship Positions

Novo Milenio

Last reported at 2018-Feb-15 12:47 UTC. Time now 2018-Feb-18 01:41 UTC.
Position N 38°33' W 009°53'.

Length 15 m.

Type: Fishing. MMSI: 263500321.

Date/timePositionNaut miles runAvg speedWind from/ knotsBaromVisibWave heightAir tempDewpointWater temp
2018-Feb-15 12:47N 38°33' W 009°53'3 7.5
2018-Feb-15 12:22N 38°36' W 009°52'3 7.3
2018-Feb-15 11:59N 38°38' W 009°50'3 7.0
2018-Feb-15 11:30N 38°41' W 009°48'4 7.2
2018-Feb-15 11:00N 38°45' W 009°46'4 7.2
2018-Feb-15 10:30N 38°48' W 009°44'4 7.2
2018-Feb-15 10:00N 38°51' W 009°42'4 7.3
2018-Feb-15 09:30N 38°54' W 009°40'4 7.5
2018-Feb-15 09:00N 38°58' W 009°38'4 7.7
2018-Feb-15 08:30N 39°01' W 009°36'4 7.8
2018-Feb-15 08:00N 39°05' W 009°33'4 7.8
2018-Feb-15 07:31N 39°08' W 009°31'4 7.7
2018-Feb-15 07:00N 39°12' W 009°29'4 7.5
2018-Feb-15 06:25N 39°15' W 009°26'  
Track history (hours):
 
Tides and Currents Weather Stations Pressure Air Temp Water Temp Dewpoint Dewpoint Depression Visibility Wind Speed Wind Dir Waves Ship Positions

Novo Milenio

Last reported at 2018-Feb-15 12:47 UTC. Time now 2018-Feb-18 01:41 UTC.
Position N 38°33' W 009°53'.

Length 15 m.

Type: Fishing. MMSI: 263500321.

Date/timePositionNaut miles runAvg speedWind from/ knotsBaromVisibWave heightAir tempDewpointWater temp
2018-Feb-15 12:47N 38°33' W 009°53'3 7.5
2018-Feb-15 12:22N 38°36' W 009°52'3 7.3
2018-Feb-15 11:59N 38°38' W 009°50'3 7.0
2018-Feb-15 11:30N 38°41' W 009°48'4 7.2
2018-Feb-15 11:00N 38°45' W 009°46'4 7.2
2018-Feb-15 10:30N 38°48' W 009°44'4 7.2
2018-Feb-15 10:00N 38°51' W 009°42'4 7.3
2018-Feb-15 09:30N 38°54' W 009°40'4 7.5
2018-Feb-15 09:00N 38°58' W 009°38'4 7.7
2018-Feb-15 08:30N 39°01' W 009°36'4 7.8
2018-Feb-15 08:00N 39°05' W 009°33'4 7.8
2018-Feb-15 07:31N 39°08' W 009°31'4 7.7
2018-Feb-15 07:00N 39°12' W 009°29'4 7.5
2018-Feb-15 06:25N 39°15' W 009°26'  

Dump ship's entire track history